Latest METARs, TAFs and NOTAMs for ETSI


---------------------------------------------------------------------------
	(OBSERVATIONS)
ETSI 012120Z AUTO 15001KT 5000 // ////// 20/18 Q1016 ///=
ETSI 012020Z AUTO 14001KT 4900 // ////// 21/18 Q1016 ///=
---------------------------------------------------------------------------
	(FC)
TAF AMD ETSI 011024Z 0111/0120 24007KT 9999 NSW SCT030 CANCEL
     1200=
---------------------------------------------------------------------------
	(TERMINAL AREA FORECAST)
AMD ETSI 011024Z 0111/0120 24007KT 9999 NSW SCT030
    CANCEL 1200=
---------------------------------------------------------------------------
	(NOTAMS)


ETSI P3574/16 AD ETSI: RWY25L CABLE NO.1 OUT OF SERVICE. 03 JUN
    08:24 2016 UNTIL 02 SEP 12:00 2016. CREATED: 03 JUN 08:31
    2016

ETSI P3575/16 AD ETSI: RWY25R CABLE NO.2 OUT OF SERVICE. 03 JUN
    08:29 2016 UNTIL 02 SEP 12:00 2016. CREATED: 03 JUN 08:34
    2016

ETSI P3576/16 AD ETSI: TACAN APCH RWY07R SUSPENDED. 03 JUN 08:41
    2016 UNTIL 02 SEP 12:00 2016. CREATED: 03 JUN 08:43 2016

ETSI P3577/16 AD ETSI: LIMITED RADAR COVERAGE BELOW 5000FT MSL.
    DETAILED INFORMATION BY INGO RADAR. 03 JUN 08:42 2016 UNTIL
    02 SEP 12:00 2016. CREATED: 03 JUN 08:44 2016

ETSI P3578/16 AD ETSI: NO SRA POSSIBLE. 03 JUN 08:43 2016 UNTIL
    02 SEP 12:00 2016. CREATED: 03 JUN 08:44 2016

ETSI P3579/16 AD ETSI: PAR RWY25R/07L OUT OF SERVICE. 03 JUN
    08:44 2016 UNTIL 02 SEP 12:00 2016. CREATED: 03 JUN 08:47
    2016

ETSI P3580/16 AD ETSI: PAR RWY25L/07R OUT OF SERVICE. 03 JUN
    08:45 2016 UNTIL 02 SEP 12:00 2016. CREATED: 03 JUN 08:48
    2016

ETSI P4247/16 AD ETSI: AERODROME CLOSED EXCEPT CIVIL AIR TRAFFIC
    WITH PPR. 04 JUL 07:00 2016 UNTIL 04 JUL 14:00 2016. CREATED:
    28 JUN 09:17 2016

ETSI P4248/16 AD ETSI: AERODROME CLOSED EXCEPT CIVIL AIR TRAFFIC
    WITH PPR. 07 JUL 07:00 2016 UNTIL 07 JUL 14:00 2016. CREATED:
    28 JUN 09:19 2016

ETSI P4285/16 AD ETSI: PAPI 25R RIGHT SIDE 3 LIGHTS ONLY. 29
    JUN 10:46 2016 UNTIL 23 SEP 11:00 2016. CREATED: 29 JUN 10:57
    2016

ETSI P4338/16 AD MIL OPENING HOURS CHANGED TO: MON-THU 0700-1400
    FRI 0700-1100. 30 JUN 13:19 2016 UNTIL 30 SEP 12:00 2016.
    CREATED: 30 JUN 13:27 2016

ETSI P4362/16 RWY25R/07L CLSD DUE TO BARRIER INSPECTION. 04 JUL
    05:00 2016 UNTIL 04 JUL 15:00 2016. CREATED: 01 JUL 09:30
    2016

ETSI U0023/16 AD ETSI INGOLSTADT/MANCHING GEMIL FLIP VAD JET
    AND EUROFIGHTER FLIP ARR/DEP JET RWY 07R/25L AND ARR/DEP
    JET RWY 07L/25R CHARTS SUSPENDED. SEE MIL AIP SUP 03/16 FOR
    DETAILS. 31 MAR 00:01 2016 UNTIL PERM. CREATED: 11 MAR 10:40
    2016

---------------------------------------------------------------------------